Time;durP1;ratioP1;P1;durP2;ratioP2;P2;SDS_P1;SDS_P2;PMS_P1;PMS_P2;Temp;Humidity;BMP_temperature;BMP_pressure;BME280_temperature;BME280_humidity;BME280_pressure;Samples;Min_cycle;Max_cycle;Signal;HPM_P1;HPM_P2
2022/06/03 00:02:29;;;;;;;;;;;9.10;99.90;;;;;;4893431;29;19915;-57
2022/06/03 00:05:03;;;;;;;;;;;9.20;99.90;;;;;;4887754;29;19949;-57
2022/06/03 00:07:47;;;;;;;;;;;9.20;99.90;;;;;;4893202;29;19922;-58
2022/06/03 00:10:33;;;;;;;;;;;9.10;99.90;;;;;;4890989;29;19994;-58
2022/06/03 00:12:59;;;;;;;;;;;9.10;99.90;;;;;;4888072;29;19922;-58
2022/06/03 00:15:27;;;;;;;;;;;9.00;99.90;;;;;;4893855;29;19919;-57
2022/06/03 00:17:55;;;;;;;;;;;9.00;99.90;;;;;;4895146;29;19915;-58
2022/06/03 00:20:23;;;;;;;;;;;9.20;99.90;;;;;;4895321;29;19934;-57
2022/06/03 00:23:06;;;;;;;;;;;9.30;99.90;;;;;;4892194;29;19923;-58
2022/06/03 00:25:51;;;;;;;;;;;9.20;99.90;;;;;;4893344;29;19911;-57
2022/06/03 00:28:20;;;;;;;;;;;9.10;99.90;;;;;;4891539;29;19915;-57
2022/06/03 00:30:51;;;;;;;;;;;9.10;99.90;;;;;;4893144;29;19911;-57
2022/06/03 00:33:23;;;;;;;;;;;8.90;99.90;;;;;;4893148;29;19915;-57
2022/06/03 00:35:54;;;;;;;;;;;8.70;99.90;;;;;;4890772;29;20408;-57
2022/06/03 00:38:33;;;;;;;;;;;8.50;99.90;;;;;;4892689;29;20042;-57
2022/06/03 00:41:07;;;;;;;;;;;8.40;99.90;;;;;;4889420;29;20009;-57
2022/06/03 00:43:48;;;;;;;;;;;8.40;99.90;;;;;;4892591;29;19912;-57
2022/06/03 00:46:20;;;;;;;;;;;8.30;99.90;;;;;;4892379;29;19912;-57
2022/06/03 00:48:56;;;;;;;;;;;8.20;99.90;;;;;;4892673;29;19964;-57
2022/06/03 00:51:41;;;;;;;;;;;8.20;99.90;;;;;;4888878;29;19912;-57
2022/06/03 00:54:19;;;;;;;;;;;8.30;99.90;;;;;;4892032;29;20675;-57
2022/06/03 00:56:56;;;;;;;;;;;8.30;99.90;;;;;;4890311;29;19926;-57
2022/06/03 00:59:33;;;;;;;;;;;8.20;99.90;;;;;;4894976;29;20316;-57
2022/06/03 01:02:14;;;;;;;;;;;8.30;99.90;;;;;;4892754;29;19950;-56
2022/06/03 01:04:55;;;;;;;;;;;8.50;99.90;;;;;;4890434;29;19927;-58
2022/06/03 01:07:21;;;;;;;;;;;8.40;99.90;;;;;;4893212;29;20002;-57
2022/06/03 01:09:49;;;;;;;;;;;8.20;99.90;;;;;;4892109;29;20066;-58
2022/06/03 01:12:24;;;;;;;;;;;8.00;99.90;;;;;;4889028;29;19908;-57
2022/06/03 01:15:01;;;;;;;;;;;7.90;99.90;;;;;;4892291;29;20287;-57
2022/06/03 01:17:35;;;;;;;;;;;8.10;99.90;;;;;;4891662;29;19963;-57
2022/06/03 01:20:01;;;;;;;;;;;8.10;99.90;;;;;;4891841;29;19949;-57
2022/06/03 01:22:36;;;;;;;;;;;7.90;99.90;;;;;;4891996;29;19912;-58
2022/06/03 01:25:10;;;;;;;;;;;7.80;99.90;;;;;;4891416;29;19908;-58
2022/06/03 01:27:44;;;;;;;;;;;7.80;99.90;;;;;;4891887;29;19957;-57
2022/06/03 01:30:13;;;;;;;;;;;7.80;99.90;;;;;;4891362;29;19919;-57
2022/06/03 01:32:44;;;;;;;;;;;7.70;99.90;;;;;;4891843;29;19911;-57
2022/06/03 01:35:28;;;;;;;;;;;7.60;99.90;;;;;;4868880;29;19920;-57
2022/06/03 01:38:17;;;;;;;;;;;7.70;99.90;;;;;;4887603;29;20011;-57
2022/06/03 01:40:51;;;;;;;;;;;7.80;99.90;;;;;;4867157;29;19908;-57
2022/06/03 01:43:40;;;;;;;;;;;7.70;99.90;;;;;;4891443;29;19918;-57
2022/06/03 01:46:12;;;;;;;;;;;7.60;99.90;;;;;;4891304;29;19955;-58
2022/06/03 01:48:47;;;;;;;;;;;7.60;99.90;;;;;;4893063;29;20368;-56
2022/06/03 01:51:31;;;;;;;;;;;7.60;99.90;;;;;;4890398;29;20190;-57
2022/06/03 01:54:05;;;;;;;;;;;7.80;99.90;;;;;;4891550;29;19972;-57
2022/06/03 01:57:01;;;;;;;;;;;7.90;99.90;;;;;;4891221;29;19915;-57
2022/06/03 01:59:29;;;;;;;;;;;7.70;99.90;;;;;;4892426;29;20431;-57
2022/06/03 02:02:19;;;;;;;;;;;7.70;99.90;;;;;;4890679;29;20018;-57
2022/06/03 02:05:03;;;;;;;;;;;7.60;99.90;;;;;;4889355;29;19927;-57
2022/06/03 02:07:45;;;;;;;;;;;7.50;99.90;;;;;;4889189;29;19911;-57
2022/06/03 02:10:13;;;;;;;;;;;7.40;99.90;;;;;;4889987;29;19965;-57
2022/06/03 02:12:57;;;;;;;;;;;7.30;99.90;;;;;;4891197;29;20291;-57
2022/06/03 02:15:42;;;;;;;;;;;7.30;99.90;;;;;;4891089;29;19919;-57
2022/06/03 02:18:20;;;;;;;;;;;7.50;99.90;;;;;;4891391;29;19919;-57
2022/06/03 02:21:12;;;;;;;;;;;7.40;99.90;;;;;;4874505;29;19966;-58
2022/06/03 02:23:55;;;;;;;;;;;7.30;99.90;;;;;;4887193;29;20328;-58
2022/06/03 02:26:29;;;;;;;;;;;7.30;99.90;;;;;;4888189;29;19918;-57
2022/06/03 02:32:15;;;;;;;;;;;7.10;99.90;;;;;;4893019;29;20288;-57
2022/06/03 02:34:41;;;;;;;;;;;7.20;99.90;;;;;;4889778;29;20408;-58
2022/06/03 02:37:17;;;;;;;;;;;7.20;99.90;;;;;;4890575;29;19963;-56
2022/06/03 02:39:54;;;;;;;;;;;7.20;99.90;;;;;;4891909;29;19911;-57
2022/06/03 02:42:25;;;;;;;;;;;7.10;99.90;;;;;;4891111;29;19915;-57
2022/06/03 02:45:10;;;;;;;;;;;7.30;99.90;;;;;;4887840;29;19911;-58
2022/06/03 02:47:54;;;;;;;;;;;7.20;99.90;;;;;;4891037;29;20001;-56
2022/06/03 02:50:31;;;;;;;;;;;7.30;99.90;;;;;;4890314;29;19998;-57
2022/06/03 02:52:57;;;;;;;;;;;7.10;99.90;;;;;;4887434;29;19915;-57
2022/06/03 02:55:25;;;;;;;;;;;7.10;99.90;;;;;;4890785;29;19920;-57
2022/06/03 02:58:03;;;;;;;;;;;7.20;99.90;;;;;;4890490;29;19916;-57
2022/06/03 03:00:48;;;;;;;;;;;7.30;99.90;;;;;;4890812;29;19919;-56
2022/06/03 03:03:23;;;;;;;;;;;7.20;99.90;;;;;;4890286;29;19915;-57
2022/06/03 03:06:08;;;;;;;;;;;7.00;99.90;;;;;;4889088;29;19927;-58
2022/06/03 03:08:54;;;;;;;;;;;7.00;99.90;;;;;;4890762;29;19907;-57
2022/06/03 03:11:26;;;;;;;;;;;7.00;99.90;;;;;;4872204;29;19912;-57
2022/06/03 03:14:00;;;;;;;;;;;6.90;99.90;;;;;;4892760;29;20332;-57
2022/06/03 03:16:49;;;;;;;;;;;6.70;99.90;;;;;;4890065;29;19963;-57
2022/06/03 03:19:33;;;;;;;;;;;6.70;99.90;;;;;;4871569;29;19908;-57
2022/06/03 03:22:22;;;;;;;;;;;6.70;99.90;;;;;;4888680;29;20010;-58
2022/06/03 03:24:47;;;;;;;;;;;6.70;99.90;;;;;;4868867;29;19911;-56
2022/06/03 03:27:31;;;;;;;;;;;6.70;99.90;;;;;;4891926;29;19911;-57
2022/06/03 03:30:03;;;;;;;;;;;6.70;99.90;;;;;;4886630;29;19917;-56
2022/06/03 03:32:35;;;;;;;;;;;7.00;99.90;;;;;;4894047;29;19912;-57
2022/06/03 03:35:19;;;;;;;;;;;7.10;99.90;;;;;;4891720;29;20586;-57
2022/06/03 03:38:03;;;;;;;;;;;7.00;99.90;;;;;;4893895;29;19983;-56
2022/06/03 03:40:47;;;;;;;;;;;6.90;99.90;;;;;;4891436;29;19911;-57
2022/06/03 03:43:12;;;;;;;;;;;6.70;99.90;;;;;;4890367;29;19983;-57
2022/06/03 03:45:48;;;;;;;;;;;6.70;99.90;;;;;;4893565;29;20710;-56
2022/06/03 03:48:39;;;;;;;;;;;6.90;99.90;;;;;;4893096;29;20319;-56
2022/06/03 03:51:22;;;;;;;;;;;7.10;99.90;;;;;;4878903;29;19907;-56
2022/06/03 03:53:48;;;;;;;;;;;7.00;99.90;;;;;;4894184;29;20091;-57
2022/06/03 03:56:32;;;;;;;;;;;6.90;99.90;;;;;;4893195;29;19943;-56
2022/06/03 03:58:57;;;;;;;;;;;6.90;99.90;;;;;;4890874;29;19958;-56
2022/06/03 04:01:38;;;;;;;;;;;6.90;99.90;;;;;;4894788;29;19912;-56
2022/06/03 04:04:22;;;;;;;;;;;7.10;99.90;;;;;;4887642;29;20451;-57
2022/06/03 04:06:54;;;;;;;;;;;7.10;99.90;;;;;;4893281;29;19911;-57
2022/06/03 04:09:38;;;;;;;;;;;7.20;99.90;;;;;;4889815;29;19915;-57
2022/06/03 04:12:03;;;;;;;;;;;7.30;99.90;;;;;;4892464;29;20292;-57
2022/06/03 04:14:45;;;;;;;;;;;7.50;99.90;;;;;;4893140;29;20014;-56
2022/06/03 04:17:30;;;;;;;;;;;7.60;99.90;;;;;;4896964;29;20397;-56
2022/06/03 04:20:13;;;;;;;;;;;7.50;99.90;;;;;;4894977;29;20033;-56
2022/06/03 04:22:39;;;;;;;;;;;7.40;99.90;;;;;;4890512;29;19921;-57
2022/06/03 04:25:23;;;;;;;;;;;7.60;99.90;;;;;;4892578;29;20295;-57
2022/06/03 04:28:01;;;;;;;;;;;7.60;99.90;;;;;;4889862;29;19912;-56
2022/06/03 04:30:45;;;;;;;;;;;7.80;99.90;;;;;;4894121;29;19914;-57
2022/06/03 04:33:29;;;;;;;;;;;7.90;99.90;;;;;;4892908;29;20002;-56
2022/06/03 04:35:55;;;;;;;;;;;8.00;99.90;;;;;;4892263;29;19915;-57
2022/06/03 04:38:44;;;;;;;;;;;8.20;99.90;;;;;;4892057;29;20368;-57
2022/06/03 04:41:16;;;;;;;;;;;8.30;99.90;;;;;;4892780;29;19908;-56
2022/06/03 04:43:57;;;;;;;;;;;8.50;99.90;;;;;;4892476;29;20652;-56
2022/06/03 04:46:22;;;;;;;;;;;8.60;99.90;;;;;;4889415;29;19951;-56
2022/06/03 04:48:50;;;;;;;;;;;8.80;99.90;;;;;;4892616;29;19986;-56
2022/06/03 04:51:16;;;;;;;;;;;9.00;99.90;;;;;;4891931;29;19911;-57
2022/06/03 04:53:41;;;;;;;;;;;9.10;99.90;;;;;;4892569;29;19979;-57
2022/06/03 04:56:07;;;;;;;;;;;9.30;99.90;;;;;;4892149;29;19913;-56
2022/06/03 04:58:35;;;;;;;;;;;9.30;99.90;;;;;;4892306;29;19918;-56
2022/06/03 05:01:20;;;;;;;;;;;9.50;99.90;;;;;;4892185;29;20005;-56
2022/06/03 05:03:51;;;;;;;;;;;9.60;99.90;;;;;;4890614;29;19923;-56
2022/06/03 05:06:25;;;;;;;;;;;9.70;99.90;;;;;;4888891;29;20034;-56
2022/06/03 05:09:20;;;;;;;;;;;9.70;99.90;;;;;;4892268;29;19911;-56
2022/06/03 05:12:04;;;;;;;;;;;9.80;99.90;;;;;;4880122;29;19963;-56
2022/06/03 05:14:48;;;;;;;;;;;9.80;99.90;;;;;;4893072;29;19994;-56
2022/06/03 05:17:16;;;;;;;;;;;9.90;99.90;;;;;;4895509;29;19915;-56
2022/06/03 05:20:00;;;;;;;;;;;10.00;99.90;;;;;;4891043;29;19911;-57
2022/06/03 05:22:45;;;;;;;;;;;10.20;99.90;;;;;;4891631;29;20002;-56
2022/06/03 05:25:11;;;;;;;;;;;10.30;99.90;;;;;;4887296;29;19912;-56
2022/06/03 05:27:39;;;;;;;;;;;10.50;99.90;;;;;;4890497;29;19918;-56
2022/06/03 05:30:23;;;;;;;;;;;10.60;99.90;;;;;;4889680;29;20001;-56
2022/06/03 05:32:48;;;;;;;;;;;10.70;99.90;;;;;;4887224;29;20037;-57
2022/06/03 05:35:14;;;;;;;;;;;10.80;99.90;;;;;;4888215;29;19915;-56
2022/06/03 05:37:45;;;;;;;;;;;10.90;99.90;;;;;;4890722;29;19922;-56
2022/06/03 05:40:26;;;;;;;;;;;11.10;99.90;;;;;;4889868;29;19911;-56
2022/06/03 05:42:51;;;;;;;;;;;11.30;99.90;;;;;;4887764;29;19948;-57
2022/06/03 05:45:43;;;;;;;;;;;11.30;99.90;;;;;;4889822;29;19911;-56
2022/06/03 05:48:17;;;;;;;;;;;11.50;99.90;;;;;;4887667;29;19911;-57
2022/06/03 05:51:01;;;;;;;;;;;11.60;99.90;;;;;;4890363;29;19911;-57
2022/06/03 05:53:27;;;;;;;;;;;11.70;99.90;;;;;;4890880;29;19946;-57
2022/06/03 05:56:11;;;;;;;;;;;11.80;99.90;;;;;;4892898;29;20248;-56
2022/06/03 05:58:58;;;;;;;;;;;12.00;99.90;;;;;;4888107;29;20097;-56
2022/06/03 06:01:42;;;;;;;;;;;12.20;99.90;;;;;;4889893;29;20365;-57
2022/06/03 06:04:18;;;;;;;;;;;12.20;99.90;;;;;;4885486;29;20014;-57
2022/06/03 06:07:02;;;;;;;;;;;12.50;99.90;;;;;;4890188;29;20427;-56
2022/06/03 06:09:43;;;;;;;;;;;12.60;99.90;;;;;;4887429;29;19962;-56
2022/06/03 06:12:27;;;;;;;;;;;12.80;99.90;;;;;;4889816;29;19912;-57
2022/06/03 06:15:12;;;;;;;;;;;12.90;99.90;;;;;;4889600;29;20287;-57
2022/06/03 06:17:55;;;;;;;;;;;13.00;99.90;;;;;;4889957;29;20420;-57
2022/06/03 06:20:36;;;;;;;;;;;13.20;99.90;;;;;;4888643;29;20426;-57
2022/06/03 06:23:04;;;;;;;;;;;13.40;99.90;;;;;;4889702;29;20447;-56
2022/06/03 06:25:38;;;;;;;;;;;13.80;99.90;;;;;;4889370;29;19922;-57
2022/06/03 06:28:12;;;;;;;;;;;13.90;99.90;;;;;;4889794;29;19918;-57
2022/06/03 06:30:46;;;;;;;;;;;13.90;99.90;;;;;;4889694;29;20397;-57
2022/06/03 06:33:14;;;;;;;;;;;13.90;99.90;;;;;;4891152;29;19939;-57
2022/06/03 06:35:43;;;;;;;;;;;14.00;99.90;;;;;;4890503;29;19916;-57
2022/06/03 06:38:19;;;;;;;;;;;14.00;99.90;;;;;;4890143;29;19922;-56
2022/06/03 06:40:47;;;;;;;;;;;14.10;99.90;;;;;;4889072;29;19911;-57
2022/06/03 06:43:13;;;;;;;;;;;14.50;99.90;;;;;;4890304;29;20030;-56
2022/06/03 06:45:44;;;;;;;;;;;14.60;99.90;;;;;;4889632;29;20051;-56
2022/06/03 06:48:29;;;;;;;;;;;14.70;99.90;;;;;;4889010;29;19982;-56
2022/06/03 06:51:04;;;;;;;;;;;14.80;99.90;;;;;;4889542;29;19959;-57
2022/06/03 06:53:39;;;;;;;;;;;15.00;99.90;;;;;;4885684;29;20977;-57
2022/06/03 06:56:23;;;;;;;;;;;15.00;99.90;;;;;;4889603;29;20352;-56
2022/06/03 06:58:56;;;;;;;;;;;15.20;99.90;;;;;;4887100;29;19911;-57
2022/06/03 07:01:41;;;;;;;;;;;15.40;99.90;;;;;;4888894;29;20371;-57
2022/06/03 07:04:24;;;;;;;;;;;15.50;99.90;;;;;;4885723;29;20082;-57
2022/06/03 07:06:53;;;;;;;;;;;15.50;99.90;;;;;;4893132;29;19970;-57
2022/06/03 07:09:40;;;;;;;;;;;15.60;99.90;;;;;;4892693;29;20314;-56
2022/06/03 07:12:11;;;;;;;;;;;15.60;99.90;;;;;;4893229;29;19911;-57
2022/06/03 07:14:42;;;;;;;;;;;15.80;99.90;;;;;;4895612;29;20423;-57
2022/06/03 07:20:07;;;;;;;;;;;16.20;99.90;;;;;;4893054;29;19918;-57
2022/06/03 07:22:33;;;;;;;;;;;16.30;99.90;;;;;;4890525;29;19907;-57
2022/06/03 07:25:02;;;;;;;;;;;16.40;99.90;;;;;;4894396;29;20346;-57
2022/06/03 07:27:29;;;;;;;;;;;16.60;99.90;;;;;;4892631;29;19911;-57
2022/06/03 07:30:15;;;;;;;;;;;16.70;99.90;;;;;;4891361;29;19911;-57
2022/06/03 07:32:55;;;;;;;;;;;16.80;99.90;;;;;;4891734;29;19923;-57
2022/06/03 07:35:39;;;;;;;;;;;16.90;99.90;;;;;;4887995;29;20010;-57
2022/06/03 07:38:15;;;;;;;;;;;17.00;99.90;;;;;;4889493;29;19923;-57
2022/06/03 07:41:09;;;;;;;;;;;17.20;99.90;;;;;;4893143;29;19923;-57
2022/06/03 07:43:41;;;;;;;;;;;17.40;99.90;;;;;;4840794;29;20389;-57
2022/06/03 07:46:12;;;;;;;;;;;17.50;99.90;;;;;;4892661;29;20321;-57
2022/06/03 07:48:38;;;;;;;;;;;17.50;99.90;;;;;;4892755;29;19911;-57
2022/06/03 07:51:16;;;;;;;;;;;17.70;99.90;;;;;;4892668;29;19994;-57
2022/06/03 07:53:47;;;;;;;;;;;17.80;99.90;;;;;;4893207;29;19908;-57
2022/06/03 07:56:23;;;;;;;;;;;17.90;99.90;;;;;;4894575;29;19907;-58
2022/06/03 07:58:51;;;;;;;;;;;18.00;99.90;;;;;;4894060;29;20259;-58
2022/06/03 08:01:20;;;;;;;;;;;18.00;99.90;;;;;;4891725;29;19911;-56
2022/06/03 08:03:47;;;;;;;;;;;18.20;99.90;;;;;;4891142;29;19978;-57
2022/06/03 08:06:13;;;;;;;;;;;18.40;99.90;;;;;;4892569;29;19915;-57
2022/06/03 08:11:28;;;;;;;;;;;19.50;99.90;;;;;;4892084;29;19971;-57
2022/06/03 08:13:56;;;;;;;;;;;19.50;99.90;;;;;;4892092;29;19917;-57
2022/06/03 08:16:30;;;;;;;;;;;19.60;99.90;;;;;;4891312;29;19940;-57
2022/06/03 08:18:57;;;;;;;;;;;19.90;99.90;;;;;;4893672;29;19911;-57
2022/06/03 08:21:27;;;;;;;;;;;20.40;99.90;;;;;;4891834;29;19911;-58
2022/06/03 08:23:54;;;;;;;;;;;21.10;99.90;;;;;;4891815;29;19991;-57
2022/06/03 08:26:21;;;;;;;;;;;21.10;99.90;;;;;;4891438;29;19938;-57
2022/06/03 08:28:50;;;;;;;;;;;20.20;99.90;;;;;;4892059;29;19911;-58
2022/06/03 08:31:18;;;;;;;;;;;20.80;99.90;;;;;;4891119;29;19990;-57
2022/06/03 08:33:47;;;;;;;;;;;20.50;99.90;;;;;;4890064;29;19919;-57
2022/06/03 08:36:21;;;;;;;;;;;21.20;99.90;;;;;;4893877;29;19915;-58
2022/06/03 08:38:48;;;;;;;;;;;21.60;99.90;;;;;;4894031;29;19939;-57
2022/06/03 08:41:22;;;;;;;;;;;21.60;99.70;;;;;;4891139;29;19918;-58
2022/06/03 08:44:02;;;;;;;;;;;22.00;99.90;;;;;;4891937;29;19911;-57
2022/06/03 08:46:34;;;;;;;;;;;22.80;96.90;;;;;;4890521;29;19944;-57
2022/06/03 08:49:03;;;;;;;;;;;22.30;98.10;;;;;;4891853;29;19915;-58
2022/06/03 08:51:38;;;;;;;;;;;23.00;97.60;;;;;;4891136;29;19916;-57
2022/06/03 08:54:03;;;;;;;;;;;22.30;97.00;;;;;;4888898;29;19922;-57
2022/06/03 08:56:34;;;;;;;;;;;21.90;97.90;;;;;;4890858;29;19911;-57
2022/06/03 08:59:07;;;;;;;;;;;22.50;97.70;;;;;;4891286;29;19911;-57
2022/06/03 09:01:36;;;;;;;;;;;22.60;96.40;;;;;;4890766;29;19946;-58
2022/06/03 09:04:22;;;;;;;;;;;23.20;96.10;;;;;;4889325;29;20015;-58
2022/06/03 09:07:06;;;;;;;;;;;23.40;95.60;;;;;;4890880;29;20268;-57
2022/06/03 09:09:41;;;;;;;;;;;24.00;94.70;;;;;;4890242;29;20030;-57
2022/06/03 09:12:20;;;;;;;;;;;23.20;95.70;;;;;;4888719;29;19951;-57
2022/06/03 09:14:47;;;;;;;;;;;23.60;94.50;;;;;;4891325;29;19907;-58
2022/06/03 09:17:25;;;;;;;;;;;23.80;94.40;;;;;;4894300;29;20297;-58
2022/06/03 09:19:51;;;;;;;;;;;23.30;95.20;;;;;;4893064;29;19915;-57
2022/06/03 09:22:22;;;;;;;;;;;23.00;95.80;;;;;;4890437;29;19911;-58
2022/06/03 09:24:47;;;;;;;;;;;23.50;94.60;;;;;;4891801;29;19942;-57
2022/06/03 09:27:16;;;;;;;;;;;23.80;93.60;;;;;;4891164;29;19912;-57
2022/06/03 09:29:51;;;;;;;;;;;23.60;95.10;;;;;;4890710;29;19918;-58
2022/06/03 09:32:17;;;;;;;;;;;24.00;94.50;;;;;;4890239;29;19915;-57
2022/06/03 09:34:50;;;;;;;;;;;24.70;93.80;;;;;;4888761;29;19927;-57
2022/06/03 09:37:17;;;;;;;;;;;24.80;93.30;;;;;;4888811;29;20376;-57
2022/06/03 09:39:44;;;;;;;;;;;24.20;93.60;;;;;;4890714;29;19917;-58
2022/06/03 09:42:11;;;;;;;;;;;24.60;93.10;;;;;;4890622;29;20022;-57
2022/06/03 09:44:37;;;;;;;;;;;24.50;93.00;;;;;;4890143;29;19911;-58
2022/06/03 09:47:04;;;;;;;;;;;25.30;91.20;;;;;;4890175;29;20038;-58
2022/06/03 09:49:31;;;;;;;;;;;23.90;92.30;;;;;;4890036;29;19916;-58
2022/06/03 09:51:56;;;;;;;;;;;23.70;94.00;;;;;;4890611;29;20546;-57
2022/06/03 09:54:27;;;;;;;;;;;23.70;93.20;;;;;;4889712;29;19998;-57
2022/06/03 09:56:56;;;;;;;;;;;24.00;93.20;;;;;;4892618;29;19915;-58
2022/06/03 09:59:23;;;;;;;;;;;24.00;93.60;;;;;;4892416;29;19908;-58
2022/06/03 10:01:49;;;;;;;;;;;24.30;93.50;;;;;;4890805;29;20173;-57
2022/06/03 10:04:16;;;;;;;;;;;24.90;92.60;;;;;;4888096;29;20090;-58
2022/06/03 10:06:47;;;;;;;;;;;26.10;90.40;;;;;;4891778;29;19911;-58
2022/06/03 10:17:51;;;;;;;;;;;25.00;90.60;;;;;;4878189;29;20729;-57
2022/06/03 10:20:17;;;;;;;;;;;24.70;89.90;;;;;;4889967;29;19922;-58
2022/06/03 10:22:45;;;;;;;;;;;24.70;90.10;;;;;;4889927;29;20467;-58
2022/06/03 10:25:12;;;;;;;;;;;25.00;90.10;;;;;;4890211;29;20320;-57
2022/06/03 10:27:37;;;;;;;;;;;25.00;89.20;;;;;;4889501;29;20291;-58
2022/06/03 10:30:05;;;;;;;;;;;25.10;90.30;;;;;;4889735;29;19967;-57
2022/06/03 10:32:30;;;;;;;;;;;25.00;88.50;;;;;;4889474;29;20240;-58
2022/06/03 10:35:05;;;;;;;;;;;25.70;89.00;;;;;;4888061;29;19919;-57
2022/06/03 10:37:30;;;;;;;;;;;26.00;86.80;;;;;;4888342;29;19915;-57
2022/06/03 10:39:56;;;;;;;;;;;26.20;85.70;;;;;;4893717;29;19907;-57
2022/06/03 10:42:23;;;;;;;;;;;26.30;84.20;;;;;;4893934;29;19913;-58
2022/06/03 10:44:50;;;;;;;;;;;24.90;85.20;;;;;;4893743;29;19961;-58
2022/06/03 10:47:17;;;;;;;;;;;24.70;87.30;;;;;;4894987;29;20402;-57
2022/06/03 10:49:51;;;;;;;;;;;25.30;85.70;;;;;;4893055;29;19950;-57
2022/06/03 11:03:30;;;;;;;;;;;24.80;85.60;;;;;;4893115;29;19986;-57
2022/06/03 11:05:56;;;;;;;;;;;25.60;84.40;;;;;;4891635;29;20006;-57
2022/06/03 11:08:21;;;;;;;;;;;25.40;85.60;;;;;;4892518;29;19947;-57
2022/06/03 11:10:57;;;;;;;;;;;25.40;84.70;;;;;;4893083;29;19991;-58
2022/06/03 11:13:30;;;;;;;;;;;26.10;81.50;;;;;;4892557;29;19998;-57
2022/06/03 11:15:57;;;;;;;;;;;25.20;84.10;;;;;;4890038;29;19919;-57
2022/06/03 11:18:32;;;;;;;;;;;25.60;83.70;;;;;;4896211;29;19951;-58
2022/06/03 11:21:15;;;;;;;;;;;25.60;82.60;;;;;;4895862;29;19946;-57
2022/06/03 11:23:40;;;;;;;;;;;26.50;81.70;;;;;;4892318;29;20030;-58
2022/06/03 11:26:07;;;;;;;;;;;28.80;78.50;;;;;;4892948;29;20014;-58
2022/06/03 11:28:36;;;;;;;;;;;29.80;74.00;;;;;;4893546;29;19967;-58
2022/06/03 11:31:02;;;;;;;;;;;27.60;75.80;;;;;;4892862;29;20549;-58
2022/06/03 11:33:31;;;;;;;;;;;26.20;77.80;;;;;;4892613;29;20010;-58
2022/06/03 11:36:00;;;;;;;;;;;25.90;80.40;;;;;;4891025;29;19915;-58
2022/06/03 11:38:46;;;;;;;;;;;26.60;77.60;;;;;;4892685;29;19915;-58
2022/06/03 11:41:14;;;;;;;;;;;26.50;76.10;;;;;;4892303;29;19911;-57
2022/06/03 11:43:46;;;;;;;;;;;26.60;75.80;;;;;;4891796;29;20395;-57
2022/06/03 11:46:14;;;;;;;;;;;26.20;75.60;;;;;;4892770;29;19991;-57
2022/06/03 11:48:42;;;;;;;;;;;26.50;76.60;;;;;;4890940;29;20007;-58
2022/06/03 11:51:08;;;;;;;;;;;27.60;75.10;;;;;;4891787;29;19918;-57
2022/06/03 11:53:37;;;;;;;;;;;27.00;75.40;;;;;;4891936;29;19922;-58
2022/06/03 11:56:04;;;;;;;;;;;27.30;75.60;;;;;;4892565;29;19911;-57
2022/06/03 11:58:40;;;;;;;;;;;26.90;74.50;;;;;;4893271;29;19959;-58
2022/06/03 12:01:08;;;;;;;;;;;25.40;75.50;;;;;;4893821;29;19907;-58
2022/06/03 12:03:45;;;;;;;;;;;25.30;77.30;;;;;;4892331;29;19919;-58
2022/06/03 12:06:17;;;;;;;;;;;26.80;77.00;;;;;;4891948;29;20311;-58
2022/06/03 12:08:46;;;;;;;;;;;27.80;74.10;;;;;;4893190;29;19912;-57
2022/06/03 12:13:14;;;;;;;;;;;27.50;74.20;;;;;;4892354;29;19991;-58
2022/06/03 12:14:18;;;;;;;;;;;28.60;74.00;;;;;;4889634;29;19915;-58
2022/06/03 12:17:04;;;;;;;;;;;28.90;71.20;;;;;;4892286;29;20010;-58
2022/06/03 12:19:36;;;;;;;;;;;28.40;70.80;;;;;;4885425;29;20018;-58
2022/06/03 12:22:21;;;;;;;;;;;28.40;70.60;;;;;;4891916;29;20007;-58
2022/06/03 12:24:52;;;;;;;;;;;29.30;70.60;;;;;;4891541;29;19911;-58
2022/06/03 12:27:20;;;;;;;;;;;29.30;71.50;;;;;;4891775;29;19918;-58
2022/06/03 12:29:50;;;;;;;;;;;27.80;69.70;;;;;;4891176;29;20284;-57
2022/06/03 12:32:30;;;;;;;;;;;27.00;71.70;;;;;;4891604;29;19923;-58
2022/06/03 12:35:14;;;;;;;;;;;26.50;72.70;;;;;;4890005;29;20059;-58
2022/06/03 12:37:40;;;;;;;;;;;26.80;73.90;;;;;;4891317;29;19962;-58
2022/06/03 12:40:20;;;;;;;;;;;25.90;73.70;;;;;;4894137;29;19973;-57
2022/06/03 12:42:46;;;;;;;;;;;25.20;75.80;;;;;;4889988;29;19907;-58
2022/06/03 12:45:15;;;;;;;;;;;25.90;74.10;;;;;;4891430;29;19912;-57
2022/06/03 12:47:44;;;;;;;;;;;25.80;72.50;;;;;;4890983;29;19986;-58
2022/06/03 12:50:42;;;;;;;;;;;25.50;75.00;;;;;;4892752;29;19976;-58
2022/06/03 12:53:19;;;;;;;;;;;25.90;73.20;;;;;;4874880;29;20341;-57
2022/06/03 12:55:51;;;;;;;;;;;26.70;73.90;;;;;;4890605;29;19958;-58
2022/06/03 12:58:40;;;;;;;;;;;27.90;72.00;;;;;;4891259;29;19995;-57
2022/06/03 13:01:06;;;;;;;;;;;26.90;73.30;;;;;;4860554;29;20416;-57
2022/06/03 13:03:31;;;;;;;;;;;26.60;73.90;;;;;;4889524;29;19957;-58
2022/06/03 13:05:57;;;;;;;;;;;;;;;;;;4888232;29;20647;-58
2022/06/03 13:08:28;;;;;;;;;;;28.00;69.50;;;;;;4890890;29;19915;-58
2022/06/03 13:10:54;;;;;;;;;;;27.40;70.70;;;;;;4890827;29;19911;-58
2022/06/03 13:13:23;;;;;;;;;;;26.50;73.40;;;;;;4890872;29;19975;-57
2022/06/03 13:15:50;;;;;;;;;;;26.70;72.50;;;;;;4891147;29;20465;-58
2022/06/03 13:18:32;;;;;;;;;;;27.40;72.50;;;;;;4892615;29;19941;-58
2022/06/03 13:20:58;;;;;;;;;;;29.60;72.10;;;;;;4891997;29;19914;-58
2022/06/03 13:23:29;;;;;;;;;;;30.50;68.90;;;;;;4892807;29;19907;-59
2022/06/03 13:26:15;;;;;;;;;;;31.90;65.70;;;;;;4887391;29;19968;-58
2022/06/03 13:28:43;;;;;;;;;;;31.80;65.70;;;;;;4890444;29;19917;-58
2022/06/03 13:31:14;;;;;;;;;;;30.70;66.80;;;;;;4891575;29;19912;-57
2022/06/03 13:34:12;;;;;;;;;;;32.80;64.60;;;;;;4890093;29;19943;-58
2022/06/03 13:36:39;;;;;;;;;;;32.40;64.30;;;;;;4880559;29;20019;-58
2022/06/03 13:39:06;;;;;;;;;;;31.10;64.40;;;;;;4890296;29;19911;-58
2022/06/03 13:44:42;;;;;;;;;;;30.40;64.60;;;;;;4890344;29;19938;-58
2022/06/03 13:47:22;;;;;;;;;;;31.80;64.70;;;;;;4889213;29;19918;-58
2022/06/03 13:49:47;;;;;;;;;;;32.70;63.30;;;;;;4887711;29;19911;-58
2022/06/03 13:52:20;;;;;;;;;;;31.90;61.20;;;;;;4890292;29;19918;-57
2022/06/03 13:54:47;;;;;;;;;;;29.80;65.00;;;;;;4889394;29;19919;-58
2022/06/03 13:57:13;;;;;;;;;;;29.50;64.00;;;;;;4890161;29;19937;-57
2022/06/03 13:59:40;;;;;;;;;;;30.40;64.10;;;;;;4890403;29;20359;-58
2022/06/03 14:02:11;;;;;;;;;;;30.40;63.10;;;;;;4892815;29;19911;-58
2022/06/03 14:04:45;;;;;;;;;;;30.60;63.50;;;;;;4889193;29;20382;-58
2022/06/03 14:07:10;;;;;;;;;;;30.10;63.50;;;;;;4890102;29;19923;-58
2022/06/03 14:09:36;;;;;;;;;;;30.30;62.90;;;;;;4889980;29;20356;-58
2022/06/03 14:12:07;;;;;;;;;;;30.40;62.00;;;;;;4890847;29;20546;-58
2022/06/03 14:14:48;;;;;;;;;;;30.40;62.50;;;;;;4889127;29;19918;-57
2022/06/03 14:17:17;;;;;;;;;;;30.70;61.80;;;;;;4890149;29;19916;-57
2022/06/03 14:19:49;;;;;;;;;;;30.30;61.80;;;;;;4889271;29;19915;-58
2022/06/03 14:22:35;;;;;;;;;;;30.00;63.60;;;;;;4890193;29;20028;-59
2022/06/03 14:25:08;;;;;;;;;;;31.30;62.10;;;;;;4888303;29;19918;-57
2022/06/03 14:27:39;;;;;;;;;;;29.60;62.40;;;;;;4889615;29;20800;-57
2022/06/03 14:30:11;;;;;;;;;;;29.30;62.60;;;;;;4889611;29;19915;-57
2022/06/03 14:32:37;;;;;;;;;;;29.20;64.00;;;;;;4889320;29;19915;-58
2022/06/03 14:35:09;;;;;;;;;;;29.90;63.40;;;;;;4888607;29;19937;-57
2022/06/03 14:37:34;;;;;;;;;;;30.00;63.00;;;;;;4885502;29;19911;-58
2022/06/03 14:40:13;;;;;;;;;;;31.30;63.10;;;;;;4890581;29;19987;-58
2022/06/03 14:42:39;;;;;;;;;;;31.50;61.90;;;;;;4892055;29;19911;-58
2022/06/03 14:45:07;;;;;;;;;;;30.80;61.90;;;;;;4891742;29;19958;-58
2022/06/03 14:47:37;;;;;;;;;;;29.60;63.30;;;;;;4888202;29;20010;-58
2022/06/03 14:50:05;;;;;;;;;;;29.00;65.10;;;;;;4890461;29;19952;-57
2022/06/03 14:52:48;;;;;;;;;;;29.00;64.20;;;;;;4889772;29;19911;-58
2022/06/03 14:55:37;;;;;;;;;;;29.00;64.50;;;;;;4886736;29;19982;-58
2022/06/03 14:58:14;;;;;;;;;;;29.00;64.60;;;;;;4883996;29;20010;-58
2022/06/03 15:00:49;;;;;;;;;;;28.20;66.40;;;;;;4888874;29;19915;-58
2022/06/03 15:03:33;;;;;;;;;;;28.20;67.20;;;;;;4886364;29;19950;-57
2022/06/03 15:05:59;;;;;;;;;;;27.70;66.90;;;;;;4887489;29;20005;-58
2022/06/03 15:08:44;;;;;;;;;;;27.60;67.30;;;;;;4888571;29;20565;-58
2022/06/03 15:11:21;;;;;;;;;;;27.50;67.50;;;;;;4884904;29;19963;-58
2022/06/03 15:13:48;;;;;;;;;;;27.60;66.60;;;;;;4889053;29;20289;-57
2022/06/03 15:16:14;;;;;;;;;;;26.90;68.70;;;;;;4889207;29;19918;-58
2022/06/03 15:18:42;;;;;;;;;;;26.70;69.20;;;;;;4891112;29;19915;-58
2022/06/03 15:21:22;;;;;;;;;;;26.90;67.90;;;;;;4890649;29;20381;-58
2022/06/03 15:23:49;;;;;;;;;;;27.00;68.30;;;;;;4890971;29;20362;-58
2022/06/03 15:26:16;;;;;;;;;;;26.50;69.10;;;;;;4892933;29;20979;-58
2022/06/03 15:28:46;;;;;;;;;;;26.80;69.10;;;;;;4893377;29;19911;-58
2022/06/03 15:31:15;;;;;;;;;;;27.00;68.30;;;;;;4891290;29;19914;-57
2022/06/03 15:33:44;;;;;;;;;;;27.60;68.40;;;;;;4893518;29;20059;-58